createdAt,value
2022-11-30T00:01:32.357Z,63.85
2022-11-30T00:04:00.612Z,64.88
2022-11-30T00:06:29.122Z,64.75
2022-11-30T00:08:59.587Z,63.78
2022-11-30T00:11:29.750Z,65.22
2022-11-30T00:14:00.858Z,62.83
2022-11-30T00:16:32.548Z,63.30
2022-11-30T00:19:00.887Z,64.60
2022-11-30T00:21:29.218Z,62.88
2022-11-30T00:23:58.883Z,65.78
2022-11-30T00:26:26.964Z,63.85
2022-11-30T00:28:55.340Z,64.07
2022-11-30T00:31:24.880Z,64.93
2022-11-30T00:33:53.352Z,65.70
2022-11-30T00:36:23.132Z,67.32
2022-11-30T00:38:54.588Z,65.72
2022-11-30T00:41:30.632Z,64.40
2022-11-30T00:44:06.197Z,66.07
2022-11-30T00:46:34.406Z,64.93
2022-11-30T00:49:02.685Z,65.50
2022-11-30T00:51:30.939Z,66.00
2022-11-30T00:53:59.014Z,67.22
2022-11-30T00:56:28.564Z,65.53
2022-11-30T00:58:56.786Z,65.82
2022-11-30T01:01:25.077Z,66.43
2022-11-30T01:03:53.601Z,69.68
2022-11-30T01:06:21.676Z,65.95
2022-11-30T01:08:49.829Z,64.28
2022-11-30T01:11:21.752Z,65.35
2022-11-30T01:13:54.373Z,66.22
2022-11-30T01:16:25.814Z,69.05
2022-11-30T01:18:54.609Z,67.07
2022-11-30T01:21:27.546Z,68.20
2022-11-30T01:23:56.548Z,66.32
2022-11-30T01:26:25.363Z,68.05
2022-11-30T01:28:56.281Z,66.60
2022-11-30T01:31:25.948Z,65.05
2022-11-30T01:33:55.947Z,66.00
2022-11-30T01:36:26.512Z,67.82
2022-11-30T01:38:56.453Z,66.95
2022-11-30T01:41:29.920Z,69.05
2022-11-30T01:44:19.509Z,66.95
2022-11-30T01:46:55.127Z,75.72
2022-11-30T01:49:29.576Z,68.25
2022-11-30T01:52:01.869Z,68.78
2022-11-30T01:54:34.961Z,68.60
2022-11-30T01:57:06.384Z,66.60
2022-11-30T01:59:36.076Z,66.45
2022-11-30T02:02:04.407Z,69.40
2022-11-30T02:04:37.394Z,66.50
2022-11-30T02:07:08.460Z,67.35
2022-11-30T02:09:43.273Z,67.47
2022-11-30T02:12:23.187Z,68.20
2022-11-30T02:14:57.549Z,69.68
2022-11-30T02:17:35.547Z,67.95
2022-11-30T02:20:42.443Z,66.38
2022-11-30T02:23:36.527Z,66.40
2022-11-30T02:26:19.589Z,67.10
2022-11-30T02:29:11.819Z,68.85
2022-11-30T02:31:44.913Z,67.30
2022-11-30T02:34:17.201Z,67.40
2022-11-30T02:36:47.241Z,67.72
2022-11-30T02:39:15.545Z,67.90
2022-11-30T02:41:43.743Z,67.65
2022-11-30T02:44:15.045Z,69.10
2022-11-30T02:46:54.766Z,68.95
2022-11-30T02:49:32.276Z,68.70
2022-11-30T02:52:02.425Z,66.95
2022-11-30T02:54:30.629Z,67.75
2022-11-30T02:56:59.160Z,67.07
2022-11-30T02:59:29.162Z,68.47
2022-11-30T03:01:57.511Z,64.90
2022-11-30T03:04:25.687Z,65.03
2022-11-30T03:06:53.764Z,67.13
2022-11-30T03:09:22.128Z,65.82
2022-11-30T03:11:52.445Z,68.05
2022-11-30T03:14:20.613Z,67.72
2022-11-30T03:16:50.108Z,67.40
2022-11-30T03:19:21.325Z,67.85
2022-11-30T03:21:50.225Z,66.03
2022-11-30T03:24:20.979Z,66.45
2022-11-30T03:26:49.271Z,68.53
2022-11-30T03:29:17.556Z,65.88
2022-11-30T03:31:45.967Z,67.70
2022-11-30T03:34:15.627Z,66.15
2022-11-30T03:36:43.864Z,68.22
2022-11-30T03:39:13.445Z,66.50
2022-11-30T03:41:41.501Z,64.90
2022-11-30T03:44:09.642Z,67.47
2022-11-30T03:46:37.893Z,66.03
2022-11-30T03:49:07.421Z,68.72
2022-11-30T03:51:37.024Z,68.57
2022-11-30T03:54:05.306Z,68.78
2022-11-30T03:56:33.611Z,69.47
2022-11-30T03:59:01.767Z,68.28
2022-11-30T04:01:30.771Z,69.80
2022-11-30T04:03:58.998Z,67.40
2022-11-30T04:06:27.095Z,69.40
2022-11-30T04:08:56.595Z,67.90
2022-11-30T04:11:24.784Z,70.60
2022-11-30T04:13:53.030Z,67.25
2022-11-30T04:16:23.232Z,69.30
2022-11-30T04:18:53.693Z,68.10
2022-11-30T04:21:21.805Z,68.00
2022-11-30T04:23:49.932Z,70.90
2022-11-30T04:26:19.390Z,68.15
2022-11-30T04:28:47.743Z,68.00
2022-11-30T04:31:15.910Z,67.32
2022-11-30T04:33:44.097Z,69.03
2022-11-30T04:36:19.437Z,70.70
2022-11-30T04:38:48.095Z,70.80
2022-11-30T04:41:16.573Z,68.35
2022-11-30T04:43:46.174Z,68.13
2022-11-30T04:46:14.666Z,71.68
2022-11-30T04:48:42.850Z,69.60
2022-11-30T04:51:10.976Z,68.68
2022-11-30T04:53:39.385Z,67.25
2022-11-30T04:56:08.439Z,68.40
2022-11-30T04:58:39.109Z,70.07
2022-11-30T05:01:09.300Z,69.03
2022-11-30T05:03:37.847Z,68.18
2022-11-30T05:06:06.578Z,69.45
2022-11-30T05:08:34.655Z,68.28
2022-11-30T05:11:02.745Z,71.05
2022-11-30T05:13:33.201Z,70.10
2022-11-30T05:16:03.713Z,68.43
2022-11-30T05:18:33.455Z,69.20
2022-11-30T05:21:01.543Z,70.70
2022-11-30T05:23:29.719Z,69.90
2022-11-30T05:25:57.792Z,68.70
2022-11-30T05:28:25.858Z,69.57
2022-11-30T05:30:53.954Z,69.05
2022-11-30T05:33:22.094Z,69.18
2022-11-30T05:35:51.570Z,68.78
2022-11-30T05:38:19.667Z,69.18
2022-11-30T05:40:48.070Z,72.00
2022-11-30T05:43:16.466Z,70.90
2022-11-30T05:45:44.511Z,69.65
2022-11-30T05:48:12.653Z,68.72
2022-11-30T05:50:40.757Z,69.13
2022-11-30T05:53:10.241Z,68.80
2022-11-30T05:55:38.436Z,68.03
2022-11-30T05:58:06.675Z,67.38
2022-11-30T06:00:34.827Z,64.03
2022-11-30T06:03:03.161Z,67.13
2022-11-30T06:05:31.514Z,67.28
2022-11-30T06:08:00.796Z,64.07
2022-11-30T06:10:30.320Z,64.85
2022-11-30T06:12:58.404Z,67.55
2022-11-30T06:15:26.482Z,65.45
2022-11-30T06:17:57.200Z,65.55
2022-11-30T06:20:25.387Z,67.05
2022-11-30T06:22:53.494Z,64.53
2022-11-30T06:25:21.632Z,65.07
2022-11-30T06:27:51.104Z,66.20
2022-11-30T06:30:19.394Z,66.15
2022-11-30T06:32:47.741Z,67.40
2022-11-30T06:35:15.962Z,65.25
2022-11-30T06:37:44.224Z,66.43
2022-11-30T06:40:14.791Z,65.82
2022-11-30T06:42:42.940Z,67.05
2022-11-30T06:45:13.160Z,65.28
2022-11-30T06:47:41.609Z,65.43
2022-11-30T06:50:10.285Z,66.07
2022-11-30T06:52:38.479Z,64.55
2022-11-30T06:55:09.561Z,65.63
2022-11-30T06:57:37.690Z,64.32
2022-11-30T07:00:08.410Z,67.50
2022-11-30T07:02:38.006Z,66.70
2022-11-30T07:05:07.101Z,64.13
2022-11-30T07:07:36.223Z,65.20
2022-11-30T07:10:06.171Z,62.80
2022-11-30T07:12:36.397Z,65.07
2022-11-30T07:15:05.161Z,64.88
2022-11-30T07:17:33.356Z,63.45
2022-11-30T07:20:02.809Z,64.65
2022-11-30T07:22:30.913Z,64.60
2022-11-30T07:25:16.361Z,64.93
2022-11-30T07:27:44.733Z,60.03
2022-11-30T07:30:13.901Z,63.10
2022-11-30T07:32:42.018Z,65.65
2022-11-30T07:35:11.637Z,62.40
2022-11-30T07:37:39.780Z,64.28
2022-11-30T07:40:10.943Z,66.25
2022-11-30T07:42:39.042Z,63.38
2022-11-30T07:45:08.312Z,64.43
2022-11-30T07:47:37.056Z,61.83
2022-11-30T07:50:05.856Z,64.10
2022-11-30T07:52:35.287Z,64.53
2022-11-30T07:55:04.578Z,63.13
2022-11-30T07:57:32.998Z,63.75
2022-11-30T08:00:01.219Z,63.67
2022-11-30T08:02:29.846Z,63.20
2022-11-30T08:04:58.792Z,64.05
2022-11-30T08:07:29.180Z,64.03
2022-11-30T08:10:00.763Z,62.80
2022-11-30T08:12:29.909Z,66.60
2022-11-30T08:15:19.475Z,66.00
2022-11-30T08:17:46.152Z,62.83
2022-11-30T08:20:14.778Z,64.82
2022-11-30T08:22:42.987Z,63.53
2022-11-30T08:25:12.512Z,65.25
2022-11-30T08:27:43.972Z,66.53
2022-11-30T08:30:12.497Z,67.90
2022-11-30T08:32:40.677Z,65.22
2022-11-30T08:35:09.601Z,65.20
2022-11-30T08:37:38.833Z,62.88
2022-11-30T08:40:08.359Z,65.55
2022-11-30T08:42:37.931Z,64.93
2022-11-30T08:45:06.968Z,66.95
2022-11-30T08:47:35.189Z,71.38
2022-11-30T08:50:03.578Z,64.35
2022-11-30T08:52:32.009Z,68.85
2022-11-30T08:55:00.142Z,66.35
2022-11-30T08:57:29.045Z,75.15
2022-11-30T08:59:58.520Z,77.28
2022-11-30T09:02:26.744Z,69.78
2022-11-30T09:04:57.249Z,76.63
2022-11-30T09:07:25.589Z,68.05
2022-11-30T09:09:53.763Z,64.65
2022-11-30T09:12:22.168Z,64.10
2022-11-30T09:14:57.168Z,65.05
2022-11-30T09:17:27.760Z,64.82
2022-11-30T09:19:56.123Z,62.47
2022-11-30T09:22:24.403Z,62.33
2022-11-30T09:24:52.610Z,60.90
2022-11-30T09:27:20.983Z,62.88
2022-11-30T09:29:49.076Z,62.03
2022-11-30T09:32:17.442Z,60.95
2022-11-30T09:34:48.520Z,62.28
2022-11-30T09:37:18.837Z,105.35
2022-11-30T09:39:47.418Z,63.08
2022-11-30T09:42:34.479Z,66.60
2022-11-30T09:45:07.686Z,67.72
2022-11-30T09:48:07.050Z,71.78
2022-11-30T09:50:43.187Z,58.75
2022-11-30T09:53:27.625Z,59.28
2022-11-30T09:55:57.811Z,88.00
2022-11-30T09:58:37.370Z,73.30
2022-11-30T10:01:07.673Z,139.13
2022-11-30T10:03:35.894Z,107.55
2022-11-30T10:06:12.382Z,65.85
2022-11-30T10:08:52.820Z,89.50
2022-11-30T10:11:39.078Z,96.75
2022-11-30T10:14:23.542Z,98.43
2022-11-30T10:17:01.515Z,62.38
2022-11-30T10:19:48.610Z,127.22
2022-11-30T10:22:25.668Z,199.20
2022-11-30T10:25:11.862Z,154.23
2022-11-30T10:27:50.852Z,68.28
2022-11-30T10:30:23.181Z,93.55
2022-11-30T10:32:54.297Z,113.57
2022-11-30T10:35:32.836Z,77.85
2022-11-30T10:38:11.838Z,61.75
2022-11-30T10:40:46.944Z,123.35
2022-11-30T10:43:20.281Z,122.72
2022-11-30T10:45:50.360Z,104.40
2022-11-30T10:48:25.041Z,80.13
2022-11-30T10:50:54.154Z,63.20
2022-11-30T10:53:23.896Z,60.17
2022-11-30T10:55:59.673Z,75.22
2022-11-30T10:58:32.641Z,60.00
2022-11-30T11:01:05.157Z,57.83
2022-11-30T11:03:34.330Z,60.40
2022-11-30T11:06:15.270Z,66.80
2022-11-30T11:08:46.899Z,60.03
2022-11-30T11:11:30.455Z,77.82
2022-11-30T11:14:15.121Z,83.68
2022-11-30T11:16:55.551Z,62.10
2022-11-30T11:19:32.738Z,70.95
2022-11-30T11:22:03.717Z,60.88
2022-11-30T11:24:34.017Z,69.95
2022-11-30T11:27:02.326Z,70.45
2022-11-30T11:29:33.603Z,71.07
2022-11-30T11:32:21.942Z,81.75
2022-11-30T11:34:51.475Z,79.78
2022-11-30T11:37:26.315Z,106.75
2022-11-30T11:40:02.200Z,76.55
2022-11-30T11:42:33.409Z,69.00
2022-11-30T11:45:03.169Z,82.10
2022-11-30T11:47:40.663Z,68.15
2022-11-30T11:50:57.876Z,74.38
2022-11-30T11:53:25.146Z,82.63
2022-11-30T11:56:03.608Z,102.32
2022-11-30T11:58:41.836Z,76.28
2022-11-30T12:01:39.098Z,66.63
2022-11-30T12:04:17.983Z,65.80
2022-11-30T12:06:47.608Z,73.38
2022-11-30T12:09:19.467Z,72.03
2022-11-30T12:11:50.329Z,87.97
2022-11-30T12:14:20.226Z,72.57
2022-11-30T12:17:13.855Z,69.50
2022-11-30T12:19:59.400Z,75.20
2022-11-30T12:22:52.717Z,84.95
2022-11-30T12:28:16.077Z,67.20
2022-11-30T12:30:54.678Z,68.35
2022-11-30T12:33:32.043Z,75.25
2022-11-30T12:36:08.450Z,70.65
2022-11-30T12:38:47.025Z,80.47
2022-11-30T12:41:31.324Z,72.95
2022-11-30T12:44:16.651Z,86.43
2022-11-30T12:46:53.749Z,73.82
2022-11-30T12:49:35.115Z,85.95
2022-11-30T12:52:14.027Z,94.60
2022-11-30T12:54:53.517Z,77.38
2022-11-30T12:57:27.870Z,75.13
2022-11-30T13:00:06.771Z,72.53
2022-11-30T13:03:16.795Z,76.43
2022-11-30T13:05:48.997Z,71.72
2022-11-30T13:08:24.450Z,70.60
2022-11-30T13:10:57.549Z,69.05
2022-11-30T13:13:30.521Z,70.25
2022-11-30T13:16:02.929Z,72.82
2022-11-30T13:18:34.344Z,72.68
2022-11-30T13:21:09.453Z,74.35
2022-11-30T13:23:41.485Z,73.47
2022-11-30T13:26:19.097Z,66.73
2022-11-30T13:29:03.096Z,72.13
2022-11-30T13:31:37.667Z,72.07
2022-11-30T13:34:24.851Z,70.38
2022-11-30T13:37:03.277Z,70.45
2022-11-30T13:39:37.248Z,74.05
2022-11-30T13:42:32.701Z,75.38
2022-11-30T13:45:17.222Z,75.03
2022-11-30T13:47:50.026Z,79.43
2022-11-30T13:53:19.998Z,74.93
2022-11-30T13:56:02.432Z,77.85
2022-11-30T13:58:32.470Z,79.70
2022-11-30T14:01:24.256Z,77.43
2022-11-30T14:04:31.072Z,82.35
2022-11-30T14:07:00.733Z,102.50
2022-11-30T14:09:58.155Z,84.05
2022-11-30T14:12:58.223Z,95.70
2022-11-30T14:15:48.925Z,76.72
2022-11-30T14:21:11.810Z,72.50
2022-11-30T14:23:48.423Z,74.55
2022-11-30T14:26:18.527Z,76.30
2022-11-30T14:28:53.728Z,74.95
2022-11-30T14:31:25.358Z,76.90
2022-11-30T14:33:56.728Z,78.28
2022-11-30T14:36:34.573Z,82.25
2022-11-30T14:39:02.746Z,83.55
2022-11-30T14:41:32.463Z,90.72
2022-11-30T14:44:07.189Z,86.80
2022-11-30T14:46:36.414Z,113.60
2022-11-30T14:49:12.475Z,83.93
2022-11-30T14:51:45.498Z,84.97
2022-11-30T14:54:28.188Z,85.97
2022-11-30T14:57:03.843Z,91.00
2022-11-30T14:59:44.860Z,93.40
2022-11-30T15:02:21.299Z,91.05
2022-11-30T15:04:51.891Z,89.28
2022-11-30T15:07:22.979Z,86.75
2022-11-30T15:10:01.010Z,90.93
2022-11-30T15:12:29.217Z,84.05
2022-11-30T15:15:04.337Z,86.47
2022-11-30T15:17:32.797Z,81.57
2022-11-30T15:20:00.968Z,85.72
2022-11-30T15:22:35.223Z,81.60
2022-11-30T15:25:03.531Z,78.65
2022-11-30T15:27:32.154Z,81.22
2022-11-30T15:30:02.451Z,82.47
2022-11-30T15:32:30.898Z,78.22
2022-11-30T15:35:01.086Z,77.13
2022-11-30T15:37:33.269Z,76.63
2022-11-30T15:40:04.464Z,83.15
2022-11-30T15:42:39.847Z,79.75
2022-11-30T15:45:18.380Z,80.07
2022-11-30T15:47:46.575Z,81.15
2022-11-30T15:50:45.057Z,75.65
2022-11-30T15:53:33.018Z,79.07
2022-11-30T15:56:07.603Z,76.57
2022-11-30T16:01:16.930Z,72.47
2022-11-30T16:04:06.889Z,72.13
2022-11-30T16:06:39.437Z,74.35
2022-11-30T16:09:20.329Z,72.65
2022-11-30T16:11:51.310Z,71.38
2022-11-30T16:14:19.538Z,75.07
2022-11-30T16:16:47.988Z,75.03
2022-11-30T16:19:16.310Z,75.68
2022-11-30T16:21:44.971Z,70.28
2022-11-30T16:24:16.859Z,71.22
2022-11-30T16:26:53.104Z,72.43
2022-11-30T16:29:23.728Z,71.75
2022-11-30T16:31:51.920Z,71.38
2022-11-30T16:34:21.986Z,74.22
2022-11-30T16:36:50.513Z,74.80
2022-11-30T16:39:20.090Z,75.45
2022-11-30T16:41:48.297Z,73.43
2022-11-30T16:44:17.669Z,69.85
2022-11-30T16:46:45.955Z,71.53
2022-11-30T16:49:14.198Z,72.45
2022-11-30T16:51:42.759Z,71.43
2022-11-30T16:54:14.034Z,70.07
2022-11-30T16:56:44.078Z,69.05
2022-11-30T16:59:16.588Z,73.30
2022-11-30T17:01:48.330Z,70.40
2022-11-30T17:04:20.086Z,70.28
2022-11-30T17:06:50.895Z,70.25
2022-11-30T17:09:21.899Z,70.88
2022-11-30T17:11:52.462Z,69.97
2022-11-30T17:14:22.018Z,71.25
2022-11-30T17:16:50.402Z,73.22
2022-11-30T17:19:19.781Z,73.15
2022-11-30T17:21:48.833Z,72.20
2022-11-30T17:24:17.189Z,75.68
2022-11-30T17:26:47.709Z,72.93
2022-11-30T17:29:17.588Z,74.50
2022-11-30T17:31:47.197Z,71.35
2022-11-30T17:34:15.457Z,71.25
2022-11-30T17:36:44.224Z,75.03
2022-11-30T17:39:13.164Z,72.78
2022-11-30T17:41:41.616Z,73.85
2022-11-30T17:44:11.060Z,74.13
2022-11-30T17:46:45.329Z,73.90
2022-11-30T17:49:18.430Z,74.95
2022-11-30T17:51:46.725Z,75.15
2022-11-30T17:54:15.360Z,72.03
2022-11-30T17:56:44.610Z,74.70
2022-11-30T17:59:13.286Z,76.43
2022-11-30T18:01:42.924Z,72.40
2022-11-30T18:04:11.579Z,75.70
2022-11-30T18:06:39.733Z,76.97
2022-11-30T18:09:07.992Z,73.47
2022-11-30T18:11:36.132Z,72.93
2022-11-30T18:14:04.445Z,70.53
2022-11-30T18:16:34.150Z,74.43
2022-11-30T18:19:11.695Z,73.10
2022-11-30T18:21:41.646Z,72.28
2022-11-30T18:24:11.055Z,70.72
2022-11-30T18:26:40.014Z,70.80
2022-11-30T18:29:09.259Z,71.13
2022-11-30T18:31:37.520Z,70.75
2022-11-30T18:34:08.320Z,69.30
2022-11-30T18:36:36.407Z,67.07
2022-11-30T18:39:05.354Z,69.07
2022-11-30T18:41:34.140Z,66.47
2022-11-30T18:44:02.333Z,67.07
2022-11-30T18:46:31.636Z,65.65
2022-11-30T18:49:01.214Z,65.10
2022-11-30T18:51:33.524Z,63.50
2022-11-30T18:54:03.203Z,64.93
2022-11-30T18:56:33.674Z,66.40
2022-11-30T18:59:03.556Z,65.70
2022-11-30T19:01:32.610Z,102.35
2022-11-30T19:04:02.572Z,70.25
2022-11-30T19:06:33.251Z,113.03
2022-11-30T19:09:03.345Z,68.25
2022-11-30T19:11:33.272Z,64.38
2022-11-30T19:14:02.188Z,61.63
2022-11-30T19:16:31.857Z,62.83
2022-11-30T19:19:01.391Z,63.08
2022-11-30T19:21:31.627Z,63.78
2022-11-30T19:24:00.412Z,62.00
2022-11-30T19:26:29.000Z,62.88
2022-11-30T19:28:57.893Z,65.30
2022-11-30T19:31:27.181Z,64.28
2022-11-30T19:33:57.088Z,63.83
2022-11-30T19:36:27.168Z,65.97
2022-11-30T19:38:58.789Z,65.70
2022-11-30T19:41:27.210Z,63.45
2022-11-30T19:44:02.454Z,65.47
2022-11-30T19:46:33.540Z,64.93
2022-11-30T19:49:02.395Z,62.50
2022-11-30T19:51:32.231Z,60.83
2022-11-30T19:54:03.886Z,60.40
2022-11-30T19:56:34.597Z,62.47
2022-11-30T19:59:05.537Z,62.15
2022-11-30T20:01:35.214Z,62.85
2022-11-30T20:04:03.607Z,58.30
2022-11-30T20:06:34.602Z,61.88
2022-11-30T20:09:05.718Z,63.20
2022-11-30T20:11:34.004Z,62.00
2022-11-30T20:14:02.251Z,61.42
2022-11-30T20:16:30.678Z,61.30
2022-11-30T20:19:01.612Z,68.10
2022-11-30T20:21:32.026Z,64.57
2022-11-30T20:24:04.314Z,61.42
2022-11-30T20:26:38.228Z,61.78
2022-11-30T20:29:08.123Z,61.55
2022-11-30T20:31:37.726Z,63.50
2022-11-30T20:34:08.186Z,64.40
2022-11-30T20:36:37.272Z,65.05
2022-11-30T20:39:08.009Z,64.90
2022-11-30T20:41:36.201Z,63.90
2022-11-30T20:44:04.593Z,64.90
2022-11-30T20:46:34.409Z,64.82
2022-11-30T20:49:03.700Z,66.57
2022-11-30T20:51:34.606Z,62.90
2022-11-30T20:54:05.536Z,62.80
2022-11-30T20:56:37.036Z,66.40
2022-11-30T20:59:06.940Z,65.25
2022-11-30T21:01:35.592Z,64.45
2022-11-30T21:04:03.898Z,63.33
2022-11-30T21:06:33.417Z,62.80
2022-11-30T21:09:02.085Z,62.70
2022-11-30T21:11:31.206Z,59.53
2022-11-30T21:14:04.056Z,64.47
2022-11-30T21:16:32.622Z,63.45
2022-11-30T21:19:01.963Z,65.80
2022-11-30T21:21:34.163Z,62.65
2022-11-30T21:24:04.529Z,65.10
2022-11-30T21:26:34.649Z,63.83
2022-11-30T21:29:06.856Z,64.35
2022-11-30T21:31:35.659Z,65.05
2022-11-30T21:34:04.384Z,60.65
2022-11-30T21:36:34.146Z,64.95
2022-11-30T21:39:06.305Z,58.85
2022-11-30T21:41:35.997Z,60.50
2022-11-30T21:44:06.264Z,61.17
2022-11-30T21:49:06.819Z,59.22
2022-11-30T21:51:35.147Z,62.92
2022-11-30T21:54:07.215Z,62.80
2022-11-30T21:56:37.923Z,62.80
2022-11-30T21:59:10.132Z,59.38
2022-11-30T22:01:40.010Z,62.65
2022-11-30T22:04:11.067Z,62.90
2022-11-30T22:06:41.145Z,59.10
2022-11-30T22:09:13.186Z,58.85
2022-11-30T22:11:43.744Z,59.58
2022-11-30T22:14:15.520Z,63.20
2022-11-30T22:16:44.345Z,60.80
2022-11-30T22:19:12.768Z,61.70
2022-11-30T22:21:44.180Z,58.83
2022-11-30T22:24:16.570Z,57.42
2022-11-30T22:26:49.119Z,54.72
2022-11-30T22:29:21.154Z,55.58
2022-11-30T22:31:51.116Z,55.60
2022-11-30T22:34:19.694Z,57.63
2022-11-30T22:36:48.514Z,57.15
2022-11-30T22:39:19.337Z,55.92
2022-11-30T22:41:54.557Z,58.90
2022-11-30T22:44:26.428Z,59.20
2022-11-30T22:46:55.016Z,57.97
2022-11-30T22:49:23.724Z,59.85
2022-11-30T22:51:52.463Z,60.13
2022-11-30T22:54:20.611Z,60.25
2022-11-30T22:56:48.805Z,62.38
2022-11-30T22:59:17.258Z,63.25
2022-11-30T23:01:48.406Z,63.50
2022-11-30T23:04:18.249Z,62.47
2022-11-30T23:06:47.650Z,59.22
2022-11-30T23:09:19.247Z,63.63
2022-11-30T23:11:48.048Z,63.15
2022-11-30T23:14:16.533Z,64.63
2022-11-30T23:16:46.751Z,61.80
2022-11-30T23:19:15.554Z,61.50
2022-11-30T23:21:45.800Z,62.15
2022-11-30T23:24:16.415Z,63.65
2022-11-30T23:26:44.883Z,62.22
2022-11-30T23:29:15.710Z,63.78
2022-11-30T23:31:53.212Z,60.85
2022-11-30T23:34:29.812Z,64.30
2022-11-30T23:37:00.228Z,64.43
2022-11-30T23:39:28.415Z,63.00
2022-11-30T23:41:56.683Z,63.55
2022-11-30T23:44:25.135Z,67.18
2022-11-30T23:46:54.652Z,65.75
2022-11-30T23:49:23.998Z,62.92
2022-11-30T23:51:52.197Z,62.75
2022-11-30T23:54:20.443Z,87.03
2022-11-30T23:56:48.573Z,65.85
2022-11-30T23:59:16.940Z,62.42
